Main page
METAR-TAF:

METAR-TAF

Airports :

Ogoki Post Airport

Ogoki Post, Ontario, Canada

latitude: 51-39-31N, longitude: 85-54-04W, elevation: 181 m

Current weather observation

The report was made 49 minutes ago, at 05:00 UTC
Wind 11 kt from the Northeast with gusts up to 16 kt
Temperature 0°C
Humidity 55%
Pressure 1001 hPa
Visibility: 14.5 km
Scattered clouds at a height of 10000 ft
Scattered clouds at a height of 12000 ft

METAR: CYKP 230500Z AUTO 05011G16KT 9SM SCT100 SCT120 00/M08 A2957 RMK SLP025

Time: 01:49 (05:49 UTC)


TAF: missing

Weather observations and forecasts of more than 4000 airports (METAR and TAF reports).

The available stations are represented by yellow and red dots on the map.

Hover mouse over dot to see the name of the station.

Then click to see weather observations and forecasts.

To change the map : click on the green buttons with a black cross to zoom in, on the green button with a dash to zoom out, or on the green arrows for adjacent maps.


METAR-TAF: